Time;durP1;ratioP1;P1;durP2;ratioP2;P2;SDS_P1;SDS_P2;PMS_P1;PMS_P2;Temp;Humidity;BMP_temperature;BMP_pressure;BME280_temperature;BME280_humidity;BME280_pressure;Samples;Min_cycle;Max_cycle;Signal;HPM_P1;HPM_P2
2022/06/15 00:00:37;;;;;;;3.97;1.88;;;12.90;99.90;;;;;;10264228;28;20490;-81
2022/06/15 00:06:18;;;;;;;8.33;2.27;;;12.80;99.90;;;;;;10263745;28;20448;-80
2022/06/15 00:11:42;;;;;;;5.20;1.60;;;12.80;99.90;;;;;;10277248;28;20393;-81
2022/06/15 00:17:03;;;;;;;5.70;1.80;;;12.70;99.90;;;;;;10263664;28;20206;-81
2022/06/15 00:22:25;;;;;;;6.63;2.37;;;12.70;99.90;;;;;;10262633;29;20202;-81
2022/06/15 00:27:46;;;;;;;5.03;1.70;;;12.70;99.90;;;;;;10285291;28;20229;-81
2022/06/15 00:33:08;;;;;;;4.47;1.80;;;12.70;99.90;;;;;;10293116;28;20278;-80
2022/06/15 00:38:35;;;;;;;12.03;2.90;;;12.70;99.90;;;;;;10262839;28;20547;-80
2022/06/15 00:44:22;;;;;;;5.68;2.15;;;12.60;99.90;;;;;;10261784;28;20202;-81
2022/06/15 00:49:55;;;;;;;7.25;2.08;;;12.60;99.90;;;;;;10275996;28;20235;-81
2022/06/15 00:55:21;;;;;;;7.43;2.30;;;12.60;99.90;;;;;;10275706;28;20611;-82
2022/06/15 01:00:42;;;;;;;7.43;2.83;;;12.60;99.90;;;;;;10275720;28;20197;-81
2022/06/15 01:06:04;;;;;;;7.60;2.40;;;12.50;99.90;;;;;;10261483;28;20199;-80
2022/06/15 01:11:59;;;;;;;6.40;2.20;;;12.50;99.90;;;;;;10274655;28;20241;-80
2022/06/15 01:17:40;;;;;;;4.27;2.23;;;12.50;99.90;;;;;;10260989;28;20576;-81
2022/06/15 01:23:26;;;;;;;6.68;2.38;;;12.40;99.90;;;;;;10274709;28;20202;-80
2022/06/15 01:28:52;;;;;;;5.80;2.23;;;12.50;99.90;;;;;;10263866;28;20252;-81
2022/06/15 01:34:38;;;;;;;8.13;2.33;;;12.40;99.90;;;;;;10260802;29;20204;-82
2022/06/15 01:40:13;;;;;;;7.70;2.63;;;12.40;99.90;;;;;;10260500;28;20281;-81
2022/06/15 01:45:37;;;;;;;5.03;2.13;;;12.50;99.90;;;;;;10260601;28;20207;-81
2022/06/15 01:51:04;;;;;;;6.95;1.90;;;12.50;99.90;;;;;;10260762;28;20528;-81
2022/06/15 01:56:31;;;;;;;4.15;2.05;;;12.50;99.90;;;;;;10274056;28;20235;-82
2022/06/15 02:02:05;;;;;;;5.85;2.50;;;12.60;99.90;;;;;;10246829;28;20211;-81
2022/06/15 02:07:58;;;;;;;8.63;2.23;;;12.60;99.90;;;;;;10262765;28;20245;-82
2022/06/15 02:13:52;;;;;;;6.20;2.10;;;12.80;99.90;;;;;;10246588;28;20199;-81
2022/06/15 02:19:17;;;;;;;4.55;2.30;;;12.90;99.90;;;;;;10259595;28;20214;-81
2022/06/15 02:24:40;;;;;;;6.47;2.35;;;12.90;99.90;;;;;;10260014;28;20199;-80
2022/06/15 02:30:08;;;;;;;9.20;2.30;;;13.00;99.90;;;;;;10262480;28;20298;-80
2022/06/15 02:35:31;;;;;;;10.00;2.72;;;12.90;99.90;;;;;;10264454;28;20265;-81
2022/06/15 02:40:53;;;;;;;6.97;2.50;;;13.00;99.90;;;;;;10260195;28;20424;-81
2022/06/15 02:46:18;;;;;;;6.83;2.60;;;12.90;99.90;;;;;;10259244;29;20213;-81
2022/06/15 02:52:02;;;;;;;5.32;2.50;;;13.00;99.90;;;;;;10272942;28;20556;-81
2022/06/15 02:57:24;;;;;;;5.18;2.20;;;13.10;99.90;;;;;;10266477;28;20311;-81
2022/06/15 03:02:45;;;;;;;4.80;2.42;;;13.10;99.90;;;;;;10266456;28;20524;-81
2022/06/15 03:08:07;;;;;;;10.95;2.53;;;13.20;99.90;;;;;;10265808;28;20226;-80
2022/06/15 03:13:29;;;;;;;7.93;2.67;;;13.30;99.90;;;;;;10265602;28;20203;-82
2022/06/15 03:18:53;;;;;;;7.53;2.35;;;13.20;99.90;;;;;;10266050;28;20279;-81
2022/06/15 03:24:14;;;;;;;6.53;2.88;;;13.10;99.90;;;;;;10279588;28;20192;-80
2022/06/15 03:29:36;;;;;;;4.97;2.40;;;13.00;99.90;;;;;;10315346;28;20228;-81
2022/06/15 03:35:04;;;;;;;5.35;2.38;;;13.00;99.90;;;;;;10254739;28;20577;-82
2022/06/15 03:40:28;;;;;;;9.48;2.50;;;13.00;99.90;;;;;;10266005;29;20218;-82
2022/06/15 03:45:49;;;;;;;9.25;2.72;;;13.00;99.90;;;;;;10264685;28;20210;-80
2022/06/15 03:51:11;;;;;;;7.38;2.90;;;13.00;99.90;;;;;;10278346;28;20234;-81
2022/06/15 03:56:49;;;;;;;7.65;2.75;;;13.00;99.90;;;;;;10252697;28;20310;-82
2022/06/15 04:02:25;;;;;;;8.63;2.65;;;13.10;99.90;;;;;;10264556;28;20237;-80
2022/06/15 04:13:30;;;;;;;7.07;2.75;;;13.30;99.90;;;;;;10277110;28;20394;-80
2022/06/15 04:18:52;;;;;;;5.65;2.22;;;13.50;99.90;;;;;;10263524;29;20461;-80
2022/06/15 04:24:15;;;;;;;5.97;2.45;;;13.70;99.90;;;;;;10263614;28;20220;-81
2022/06/15 04:29:37;;;;;;;5.32;2.42;;;13.90;99.90;;;;;;10313197;28;20254;-80
2022/06/15 04:34:58;;;;;;;8.82;2.63;;;14.20;99.90;;;;;;10303033;28;20202;-81
2022/06/15 04:40:22;;;;;;;6.22;2.10;;;14.20;99.90;;;;;;10236609;29;20230;-81
2022/06/15 04:45:44;;;;;;;8.00;2.05;;;14.40;99.90;;;;;;10239248;28;20491;-82
2022/06/15 04:51:21;;;;;;;7.68;2.22;;;14.40;99.90;;;;;;10236886;29;20231;-81
2022/06/15 04:56:46;;;;;;;3.80;2.17;;;14.50;99.90;;;;;;10236888;29;20297;-80
2022/06/15 05:02:11;;;;;;;6.25;2.28;;;14.60;99.90;;;;;;10269429;28;20509;-81
2022/06/15 05:07:34;;;;;;;5.32;2.25;;;14.60;99.90;;;;;;10275599;28;20289;-81
2022/06/15 05:12:57;;;;;;;7.78;2.63;;;14.70;99.90;;;;;;10275328;28;20499;-81
2022/06/15 05:18:22;;;;;;;5.32;1.98;;;14.80;99.90;;;;;;10261365;28;20426;-80
2022/06/15 05:23:44;;;;;;;2.67;1.77;;;15.00;99.90;;;;;;10261495;28;20200;-81
2022/06/15 05:29:11;;;;;;;2.75;1.80;;;15.10;99.90;;;;;;10293816;28;20256;-81
2022/06/15 05:34:37;;;;;;;1.60;1.27;;;15.20;78.70;;;;;;10315852;28;20216;-80
2022/06/15 05:40:00;;;;;;;5.95;1.77;;;15.20;56.50;;;;;;10300967;28;20209;-80
2022/06/15 05:45:22;;;;;;;5.40;1.73;;;15.30;57.50;;;;;;10270979;28;20191;-82
2022/06/15 05:50:45;;;;;;;8.40;2.58;;;15.30;47.00;;;;;;10260980;28;20225;-80
2022/06/15 05:56:11;;;;;;;4.20;1.90;;;15.40;41.10;;;;;;10259801;28;20527;-81
2022/06/15 06:01:35;;;;;;;10.27;2.38;;;15.50;20.00;;;;;;10273940;28;20226;-81
2022/06/15 06:06:56;;;;;;;6.47;2.15;;;15.50;20.30;;;;;;10274598;28;20201;-81
2022/06/15 06:12:17;;;;;;;8.30;2.20;;;15.50;17.00;;;;;;10259982;28;20231;-82
2022/06/15 06:17:39;;;;;;;3.95;2.22;;;15.70;12.70;;;;;;10259829;28;20202;-82
2022/06/15 06:23:00;;;;;;;6.03;2.03;;;15.80;14.70;;;;;;10259656;28;20206;-81
2022/06/15 06:28:40;;;;;;;6.93;1.75;;;15.90;7.20;;;;;;10301372;28;20457;-81
2022/06/15 06:34:01;;;;;;;4.63;1.45;;;16.10;1.00;;;;;;10321044;28;20514;-81
2022/06/15 06:39:26;;;;;;;3.90;1.33;;;16.20;1.00;;;;;;10278043;28;20220;-81
2022/06/15 06:44:48;;;;;;;3.03;1.38;;;16.30;1.00;;;;;;10227556;29;20202;-81
2022/06/15 06:50:09;;;;;;;4.95;1.85;;;16.50;1.00;;;;;;10256621;28;20234;-82
2022/06/15 06:55:31;;;;;;;4.30;1.63;;;16.60;1.00;;;;;;10256334;28;20247;-81
2022/06/15 07:00:53;;;;;;;1.98;1.23;;;16.70;1.00;;;;;;10267151;28;20204;-81
2022/06/15 07:06:15;;;;;;;1.92;1.23;;;16.70;1.00;;;;;;10266733;28;20426;-82
2022/06/15 07:11:37;;;;;;;4.28;1.40;;;16.80;1.00;;;;;;10277984;28;20307;-82
2022/06/15 07:16:58;;;;;;;3.47;1.25;;;16.80;1.00;;;;;;10257865;28;20242;-81
2022/06/15 07:22:19;;;;;;;2.65;1.30;;;16.90;1.00;;;;;;10260457;28;20198;-82
2022/06/15 07:27:42;;;;;;;4.72;1.35;;;16.90;1.00;;;;;;10295472;28;20196;-82
2022/06/15 07:33:03;;;;;;;6.60;1.63;;;17.10;1.00;;;;;;10300161;28;20207;-83
2022/06/15 07:38:26;;;;;;;3.45;1.38;;;17.50;1.00;;;;;;10299009;28;20205;-82
2022/06/15 07:43:50;;;;;;;8.88;1.50;;;18.00;1.00;;;;;;10271736;28;20201;-82
2022/06/15 07:54:52;;;;;;;5.10;1.73;;;19.00;1.00;;;;;;10258792;28;20324;-82
2022/06/15 08:00:15;;;;;;;3.65;1.13;;;19.60;1.00;;;;;;10273074;28;20211;-82
2022/06/15 08:05:42;;;;;;;4.45;1.17;;;19.80;1.00;;;;;;10259022;28;20260;-83
2022/06/15 08:11:04;;;;;;;3.58;1.58;;;20.30;1.00;;;;;;10280320;28;20237;-84
2022/06/15 08:16:25;;;;;;;3.05;1.00;;;20.30;1.00;;;;;;10286222;28;20387;-83
2022/06/15 08:21:47;;;;;;;2.88;1.20;;;20.00;1.00;;;;;;10312147;28;20245;-85
2022/06/15 08:27:11;;;;;;;3.20;1.05;;;20.90;1.00;;;;;;10277953;28;20195;-84
2022/06/15 08:32:32;;;;;;;2.78;1.30;;;21.60;1.00;;;;;;10272596;28;20235;-86
2022/06/15 08:37:54;;;;;;;3.28;1.10;;;21.70;1.00;;;;;;10258657;28;20230;-83
2022/06/15 08:43:29;;;;;;;4.60;1.13;;;20.90;1.00;;;;;;10221486;29;20220;-84
2022/06/15 08:49:25;;;;;;;3.20;1.33;;;21.10;99.90;;;;;;10232792;29;20232;-84
2022/06/15 08:55:05;;;;;;;13.52;1.40;;;22.00;99.90;;;;;;10231245;29;20259;-82
2022/06/15 09:00:38;;;;;;;2.30;0.98;;;22.90;1.00;;;;;;10217007;29;20398;-83
2022/06/15 09:06:09;;;;;;;2.58;1.00;;;23.00;14.70;;;;;;10238090;28;20206;-83
2022/06/15 09:12:49;;;;;;;6.88;2.15;;;23.70;13.10;;;;;;10288150;28;20230;-84
2022/06/15 09:17:46;;;;;;;2.65;0.98;;;23.70;12.80;;;;;;10322246;28;20205;-83
2022/06/15 09:23:26;;;;;;;1.33;0.80;;;23.00;17.50;;;;;;10275186;28;20260;-83
2022/06/15 09:29:11;;;;;;;24.33;4.32;;;22.10;25.20;;;;;;10276462;28;20222;-83
2022/06/15 09:34:39;;;;;;;5.38;1.20;;;21.70;34.10;;;;;;10257127;28;20199;-83
2022/06/15 09:40:03;;;;;;;3.90;1.48;;;21.80;32.90;;;;;;10272957;28;20460;-82
2022/06/15 09:45:32;;;;;;;5.35;1.25;;;22.30;31.50;;;;;;10258687;28;20230;-83
2022/06/15 09:51:12;;;;;;;1.70;1.20;;;22.70;26.50;;;;;;10258786;28;20238;-82
2022/06/15 09:56:34;;;;;;;2.38;0.90;;;22.90;23.90;;;;;;10215976;28;1289500;-83
2022/06/15 10:01:56;;;;;;;4.25;1.80;;;23.00;20.70;;;;;;10260980;28;20222;-83
2022/06/15 10:07:41;;;;;;;4.93;1.00;;;23.00;20.00;;;;;;10260026;28;20205;-83
2022/06/15 10:13:24;;;;;;;1.92;1.10;;;23.00;28.50;;;;;;10282476;28;20245;-83
2022/06/15 10:18:52;;;;;;;4.50;0.90;;;23.40;17.00;;;;;;10274480;28;20203;-83
2022/06/15 10:24:13;;;;;;;2.30;1.13;;;23.60;17.40;;;;;;10262177;28;20235;-82
2022/06/15 10:30:06;;;;;;;6.05;1.13;;;23.30;10.30;;;;;;10270640;28;20293;-82
2022/06/15 10:35:59;;;;;;;2.80;1.35;;;22.70;14.40;;;;;;10267555;28;20207;-82
2022/06/15 10:41:47;;;;;;;6.85;3.38;;;22.40;20.00;;;;;;10254443;28;20215;-84
2022/06/15 10:47:22;;;;;;;5.97;1.33;;;22.20;19.60;;;;;;10254862;28;20207;-84
2022/06/15 10:52:49;;;;;;;5.53;1.13;;;22.00;23.00;;;;;;10282477;28;20281;-83
2022/06/15 11:04:23;;;;;;;2.97;1.10;;;23.20;26.70;;;;;;10268483;28;20198;-83
2022/06/15 11:10:09;;;;;;;3.65;1.10;;;23.70;25.30;;;;;;10269020;28;20568;-83
2022/06/15 11:21:31;;;;;;;15.10;1.83;;;23.60;13.50;;;;;;10267650;28;20206;-84
2022/06/15 11:27:10;;;;;;;6.63;1.00;;;24.40;3.60;;;;;;10296116;28;20358;-84
2022/06/15 11:32:43;;;;;;;6.03;1.08;;;25.40;1.00;;;;;;10276597;28;20229;-89
2022/06/15 11:38:14;;;;;;;10.02;1.45;;;25.80;1.00;;;;;;10266941;28;20218;-83
2022/06/15 11:43:41;;;;;;;5.78;0.90;;;24.90;1.00;;;;;;10281545;28;20290;-83
2022/06/15 11:49:05;;;;;;;3.00;0.90;;;24.40;1.00;;;;;;10259303;28;20233;-84
2022/06/15 11:54:38;;;;;;;2.40;0.85;;;24.60;5.50;;;;;;10289708;28;20251;-83
2022/06/15 12:00:28;;;;;;;10.00;1.73;;;24.60;7.20;;;;;;10293878;28;20202;-82
2022/06/15 12:05:56;;;;;;;2.40;1.00;;;24.90;1.00;;;;;;10285709;28;20199;-83
2022/06/15 12:17:31;;;;;;;1.58;1.05;;;24.60;1.00;;;;;;10263353;28;20206;-89
2022/06/15 12:23:06;;;;;;;4.88;1.00;;;24.70;1.00;;;;;;10283890;28;20206;-82
2022/06/15 12:28:47;;;;;;;2.45;0.93;;;24.80;1.00;;;;;;10266246;28;20289;-82
2022/06/15 12:34:15;;;;;;;9.52;1.20;;;25.20;1.00;;;;;;10279287;28;20211;-81
2022/06/15 12:39:54;;;;;;;4.55;1.75;;;25.10;1.00;;;;;;10241204;28;20203;-83
2022/06/15 12:45:23;;;;;;;4.75;1.20;;;25.00;1.00;;;;;;10274243;28;20234;-82
2022/06/15 12:50:59;;;;;;;3.15;1.10;;;24.80;1.00;;;;;;10265725;28;20231;-83
2022/06/15 12:56:59;;;;;;;6.18;1.15;;;24.30;1.00;;;;;;10256794;28;20258;-83
2022/06/15 13:03:01;;;;;;;2.40;1.15;;;23.80;1.00;;;;;;10143039;29;20205;-83
2022/06/15 13:08:32;;;;;;;2.53;1.40;;;23.30;1.70;;;;;;10139422;29;20214;-82
2022/06/15 13:14:08;;;;;;;5.13;1.10;;;23.00;3.00;;;;;;10152802;29;20566;-82
2022/06/15 13:19:41;;;;;;;5.15;1.33;;;22.80;10.90;;;;;;10164057;29;20569;-88
2022/06/15 13:25:03;;;;;;;2.45;1.17;;;22.60;11.90;;;;;;10143347;29;20217;-82
2022/06/15 13:30:28;;;;;;;4.13;1.30;;;22.20;13.80;;;;;;10137996;29;20467;-83
2022/06/15 13:36:11;;;;;;;11.98;1.63;;;21.90;19.70;;;;;;10202804;28;20257;-83
2022/06/15 13:41:33;;;;;;;14.68;1.55;;;21.80;22.50;;;;;;10277396;28;20252;-83
2022/06/15 13:46:57;;;;;;;1.73;1.05;;;21.80;17.80;;;;;;10261937;28;20206;-84
2022/06/15 13:52:27;;;;;;;3.83;1.25;;;21.80;16.60;;;;;;10275848;28;20223;-83
2022/06/15 13:58:23;;;;;;;2.50;1.00;;;21.90;17.90;;;;;;10257046;28;20246;-83
2022/06/15 14:03:53;;;;;;;3.42;1.40;;;21.90;26.30;;;;;;10289442;28;20440;-88
2022/06/15 14:09:22;;;;;;;1.95;1.05;;;22.10;20.60;;;;;;10266471;28;20235;-83
2022/06/15 14:15:03;;;;;;;2.13;1.08;;;22.10;19.80;;;;;;10262972;28;20203;-87
2022/06/15 14:20:29;;;;;;;4.15;1.17;;;22.40;10.60;;;;;;10257856;28;20250;-83
2022/06/15 14:25:51;;;;;;;4.65;1.23;;;22.50;10.30;;;;;;10258994;28;20203;-83
2022/06/15 14:31:19;;;;;;;3.30;1.00;;;22.60;1.00;;;;;;10274764;28;20226;-83
2022/06/15 14:37:17;;;;;;;2.95;0.93;;;22.40;1.00;;;;;;10267874;28;20199;-82
2022/06/15 14:42:57;;;;;;;8.20;1.45;;;22.20;1.00;;;;;;10281444;28;20211;-89
2022/06/15 14:48:29;;;;;;;1.90;0.95;;;22.10;1.00;;;;;;10260763;28;20208;-83
2022/06/15 14:54:02;;;;;;;4.57;1.60;;;22.10;1.00;;;;;;10277658;28;20325;-85
2022/06/15 14:59:40;;;;;;;11.63;3.53;;;22.10;1.00;;;;;;10275703;28;20569;-83
2022/06/15 15:05:39;;;;;;;3.92;2.00;;;21.90;1.00;;;;;;10280162;28;20270;-84
2022/06/15 15:11:47;;;;;;;2.83;1.77;;;22.10;1.00;;;;;;10266467;28;20223;-84
2022/06/15 15:17:09;;;;;;;6.18;2.58;;;22.20;1.00;;;;;;10266268;28;20397;-83
2022/06/15 15:22:50;;;;;;;4.47;1.77;;;22.30;1.00;;;;;;10265953;28;20242;-81
2022/06/15 15:34:11;;;;;;;3.58;0.90;;;22.30;1.00;;;;;;10294711;28;20198;-82
2022/06/15 15:39:33;;;;;;;5.45;1.10;;;22.20;1.00;;;;;;10273818;28;20219;-85
2022/06/15 15:44:54;;;;;;;3.53;1.27;;;22.10;1.00;;;;;;10266038;28;20195;-83
2022/06/15 15:50:17;;;;;;;3.50;1.67;;;22.10;1.00;;;;;;10278893;28;20303;-83
2022/06/15 15:55:44;;;;;;;3.13;1.63;;;21.80;1.00;;;;;;10266135;28;20235;-82
2022/06/15 16:01:06;;;;;;;8.40;1.75;;;21.70;1.00;;;;;;10265006;28;20196;-83
2022/06/15 16:06:29;;;;;;;2.10;1.08;;;21.70;1.00;;;;;;10278723;28;20191;-83
2022/06/15 16:11:50;;;;;;;1.83;1.33;;;21.70;1.00;;;;;;10277896;28;20294;-83
2022/06/15 16:17:13;;;;;;;3.25;1.58;;;21.70;1.00;;;;;;10264435;28;20199;-83
2022/06/15 16:22:38;;;;;;;3.38;0.90;;;21.60;1.00;;;;;;10264181;28;20207;-83
2022/06/15 16:28:01;;;;;;;2.03;1.00;;;21.50;1.00;;;;;;10287148;28;20195;-83
2022/06/15 16:33:22;;;;;;;1.25;1.15;;;21.60;1.00;;;;;;10233608;28;20231;-83
2022/06/15 16:38:44;;;;;;;6.45;1.48;;;21.50;1.00;;;;;;10237311;29;20433;-83
2022/06/15 16:44:06;;;;;;;1.40;0.88;;;21.50;1.00;;;;;;10253285;28;20231;-83
2022/06/15 16:49:27;;;;;;;2.05;0.98;;;21.40;1.00;;;;;;10262732;28;20229;-83
2022/06/15 16:54:49;;;;;;;4.20;1.13;;;21.10;1.00;;;;;;10278247;28;20235;-83
2022/06/15 17:00:13;;;;;;;1.92;0.93;;;21.00;1.00;;;;;;10249983;28;20199;-83
2022/06/15 17:05:35;;;;;;;2.92;1.40;;;20.90;1.00;;;;;;10262315;28;20199;-83
2022/06/15 17:11:11;;;;;;;4.03;1.38;;;20.70;1.00;;;;;;10261667;28;20227;-83
2022/06/15 17:16:32;;;;;;;3.38;1.42;;;20.50;1.00;;;;;;10275614;28;20359;-83
2022/06/15 17:21:54;;;;;;;1.63;1.25;;;20.30;1.00;;;;;;10261787;28;20195;-82
2022/06/15 17:27:23;;;;;;;3.22;1.55;;;20.20;1.00;;;;;;10280033;28;20194;-83
2022/06/15 17:32:45;;;;;;;2.53;1.45;;;20.20;1.00;;;;;;10303172;28;20219;-83
2022/06/15 17:38:07;;;;;;;3.42;1.60;;;20.20;1.00;;;;;;10261469;28;20230;-84
2022/06/15 17:43:29;;;;;;;5.95;2.55;;;20.10;1.00;;;;;;10261692;28;20384;-83
2022/06/15 17:48:51;;;;;;;3.28;1.98;;;20.00;1.00;;;;;;10261004;28;20250;-83
2022/06/15 17:54:13;;;;;;;2.53;1.65;;;19.80;1.00;;;;;;10274465;28;20238;-83
2022/06/15 17:59:35;;;;;;;4.65;3.08;;;19.70;1.00;;;;;;10261270;28;20203;-82
2022/06/15 18:04:57;;;;;;;4.65;2.90;;;19.60;1.00;;;;;;10261177;28;20249;-83
2022/06/15 18:10:19;;;;;;;4.15;2.28;;;19.50;1.00;;;;;;10275103;28;20230;-83
2022/06/15 18:15:41;;;;;;;6.25;2.08;;;19.50;1.00;;;;;;10260632;28;20195;-83
2022/06/15 18:21:03;;;;;;;5.32;2.25;;;19.40;1.00;;;;;;10260872;28;20229;-83
2022/06/15 18:26:25;;;;;;;3.22;1.98;;;19.30;1.00;;;;;;10276699;28;20194;-83
2022/06/15 18:31:54;;;;;;;5.82;2.55;;;19.20;1.00;;;;;;10308211;28;20233;-83
2022/06/15 18:37:17;;;;;;;5.18;2.50;;;19.20;1.00;;;;;;10271664;28;20210;-84
2022/06/15 18:42:38;;;;;;;3.83;1.77;;;19.10;1.00;;;;;;10267895;28;20246;-82
2022/06/15 18:48:00;;;;;;;4.30;1.55;;;19.00;1.00;;;;;;10257716;28;20199;-83
2022/06/15 18:53:22;;;;;;;2.90;1.60;;;18.90;19.50;;;;;;10267001;28;20241;-84
2022/06/15 18:58:43;;;;;;;2.95;1.75;;;18.70;99.90;;;;;;10280743;28;20356;-82
2022/06/15 19:04:05;;;;;;;3.67;1.88;;;18.50;99.90;;;;;;10266538;28;20380;-82
2022/06/15 19:09:28;;;;;;;4.25;1.88;;;18.40;1.00;;;;;;10280089;28;20429;-82
2022/06/15 19:14:50;;;;;;;7.40;2.30;;;18.30;1.00;;;;;;10266129;28;20209;-82
2022/06/15 19:20:13;;;;;;;4.97;2.63;;;18.20;1.00;;;;;;10261165;28;20206;-82
2022/06/15 19:25:37;;;;;;;6.70;4.03;;;18.10;1.00;;;;;;10266200;28;20203;-82
2022/06/15 19:31:07;;;;;;;8.10;4.65;;;18.10;1.00;;;;;;10265743;28;20234;-82
2022/06/15 19:36:30;;;;;;;10.23;4.65;;;18.00;1.00;;;;;;10266637;28;20490;-83
2022/06/15 19:41:54;;;;;;;6.10;4.20;;;17.80;86.20;;;;;;10279114;28;20203;-81
2022/06/15 19:47:18;;;;;;;7.13;3.72;;;17.70;99.90;;;;;;10266867;28;20280;-83
2022/06/15 19:52:39;;;;;;;6.75;4.60;;;17.60;99.90;;;;;;10254237;28;20294;-83
2022/06/15 19:58:01;;;;;;;5.30;3.58;;;17.60;99.90;;;;;;10257607;28;20206;-82
2022/06/15 20:03:23;;;;;;;9.60;3.67;;;17.50;99.90;;;;;;10256906;29;20195;-83
2022/06/15 20:08:44;;;;;;;5.70;3.47;;;17.40;99.90;;;;;;10266577;28;20187;-83
2022/06/15 20:14:06;;;;;;;12.27;6.18;;;17.40;99.90;;;;;;10265902;28;20254;-82
2022/06/15 20:19:39;;;;;;;12.07;7.45;;;17.30;1.00;;;;;;10278629;28;20211;-82
2022/06/15 20:25:04;;;;;;;13.90;8.70;;;17.20;1.00;;;;;;10265758;28;20207;-83
2022/06/15 20:30:27;;;;;;;12.48;8.85;;;17.20;1.00;;;;;;10270753;28;20338;-83
2022/06/15 20:35:48;;;;;;;12.88;8.57;;;17.00;1.00;;;;;;10263494;28;20230;-83
2022/06/15 20:41:13;;;;;;;13.85;8.13;;;16.90;1.00;;;;;;10263013;28;20206;-83
2022/06/15 20:46:38;;;;;;;12.40;7.90;;;16.90;1.00;;;;;;10262264;28;20234;-83
2022/06/15 20:52:02;;;;;;;13.90;8.15;;;16.80;1.00;;;;;;10261986;28;20249;-83
2022/06/15 20:57:24;;;;;;;18.65;8.35;;;16.80;1.00;;;;;;10263299;28;20238;-83
2022/06/15 21:02:45;;;;;;;10.52;6.70;;;16.70;1.00;;;;;;10262402;28;20206;-83
2022/06/15 21:08:12;;;;;;;10.93;6.50;;;16.60;1.00;;;;;;10262054;28;20215;-83
2022/06/15 21:19:13;;;;;;;10.05;6.13;;;16.40;1.00;;;;;;10261884;28;20206;-83
2022/06/15 21:24:35;;;;;;;11.18;5.60;;;16.30;1.00;;;;;;10261200;28;20206;-83
2022/06/15 21:29:58;;;;;;;11.98;6.70;;;16.20;1.00;;;;;;10299973;28;20217;-83
2022/06/15 21:35:19;;;;;;;11.18;6.20;;;16.20;1.00;;;;;;10223131;29;20282;-83
2022/06/15 21:48:02;;;;;;;9.20;5.88;;;16.00;1.00;;;;;;10207074;29;20230;-83
2022/06/15 21:53:27;;;;;;;8.88;5.32;;;16.00;7.30;;;;;;10231748;29;20317;-82
2022/06/15 21:58:49;;;;;;;11.73;5.93;;;15.90;10.00;;;;;;10231802;29;20198;-83
2022/06/15 22:04:11;;;;;;;8.00;5.40;;;15.90;14.10;;;;;;10202670;29;20214;-81
2022/06/15 22:09:33;;;;;;;13.32;6.28;;;15.80;24.60;;;;;;10202224;29;20390;-83
2022/06/15 22:14:54;;;;;;;10.18;5.72;;;15.60;31.80;;;;;;10202804;29;20259;-82
2022/06/15 22:20:19;;;;;;;12.75;6.07;;;15.60;31.90;;;;;;10171502;29;20229;-83
2022/06/15 22:25:42;;;;;;;11.48;5.55;;;15.60;30.50;;;;;;10260517;28;20255;-83
2022/06/15 22:31:06;;;;;;;10.05;4.93;;;15.50;36.30;;;;;;10259777;28;20228;-83
2022/06/15 22:36:27;;;;;;;9.15;5.03;;;15.40;46.80;;;;;;10259920;28;20207;-83
2022/06/15 22:41:49;;;;;;;7.68;4.97;;;15.40;65.40;;;;;;10273116;28;20470;-82
2022/06/15 22:47:10;;;;;;;8.48;4.97;;;15.40;59.80;;;;;;10274303;28;20193;-83
2022/06/15 22:52:32;;;;;;;10.63;4.75;;;15.30;54.80;;;;;;10270822;28;20248;-82
2022/06/15 22:57:55;;;;;;;12.13;5.70;;;15.30;70.10;;;;;;10259367;28;20238;-82
2022/06/15 23:03:23;;;;;;;9.35;5.53;;;15.20;68.80;;;;;;10273322;28;20216;-82
2022/06/15 23:09:28;;;;;;;10.43;5.85;;;15.10;73.60;;;;;;10263230;28;20277;-82
2022/06/15 23:14:49;;;;;;;11.82;5.90;;;15.10;66.40;;;;;;10266858;28;20206;-83
2022/06/15 23:20:12;;;;;;;9.30;5.30;;;15.00;73.40;;;;;;10280162;28;20209;-83
2022/06/15 23:25:34;;;;;;;8.98;5.80;;;15.00;78.60;;;;;;10256080;28;20417;-83
2022/06/15 23:30:55;;;;;;;10.75;5.50;;;15.00;75.60;;;;;;10333124;28;20227;-84
2022/06/15 23:36:19;;;;;;;9.00;5.85;;;14.90;68.20;;;;;;10239707;29;20206;-83
2022/06/15 23:41:55;;;;;;;12.75;6.30;;;14.80;90.30;;;;;;10278816;28;20216;-82
2022/06/15 23:47:25;;;;;;;10.82;5.78;;;14.70;84.40;;;;;;10265077;28;20203;-83
2022/06/15 23:52:46;;;;;;;12.38;6.50;;;14.70;56.10;;;;;;10279139;28;20249;-83
2022/06/15 23:58:09;;;;;;;12.02;7.55;;;14.50;90.10;;;;;;10265109;29;20204;-83
